sensor_id;sensor_type;location;lat;lon;timestamp;pressure;altitude;pressure_sealevel;temperature;humidity
58598;BME280;60319;46.908;16.848;2022-07-10T00:04:18;99857.41;;;16.61;100.00
58598;BME280;60319;46.908;16.848;2022-07-10T00:09:21;99841.84;;;16.56;100.00
58598;BME280;60319;46.908;16.848;2022-07-10T00:14:22;99847.56;;;16.53;100.00
58598;BME280;60319;46.908;16.848;2022-07-10T00:19:23;99843.84;;;16.54;100.00
58598;BME280;60319;46.908;16.848;2022-07-10T00:24:23;99833.97;;;16.55;100.00
58598;BME280;60319;46.908;16.848;2022-07-10T00:29:24;99832.25;;;16.54;100.00
58598;BME280;60319;46.908;16.848;2022-07-10T00:34:24;99829.91;;;16.59;100.00
58598;BME280;60319;46.908;16.848;2022-07-10T00:39:24;99835.91;;;16.61;100.00
58598;BME280;60319;46.908;16.848;2022-07-10T00:44:25;99828.03;;;16.60;100.00
58598;BME280;60319;46.908;16.848;2022-07-10T00:49:25;99827.06;;;16.61;100.00
58598;BME280;60319;46.908;16.848;2022-07-10T00:54:26;99824.81;;;16.41;100.00
58598;BME280;60319;46.908;16.848;2022-07-10T00:59:27;99823.50;;;16.28;100.00
58598;BME280;60319;46.908;16.848;2022-07-10T01:04:29;99821.09;;;16.42;100.00
58598;BME280;60319;46.908;16.848;2022-07-10T01:09:33;99813.97;;;16.58;100.00
58598;BME280;60319;46.908;16.848;2022-07-10T01:14:34;99815.16;;;16.55;100.00
58598;BME280;60319;46.908;16.848;2022-07-10T01:19:36;99811.00;;;16.52;100.00
58598;BME280;60319;46.908;16.848;2022-07-10T01:24:37;99803.28;;;16.49;100.00
58598;BME280;60319;46.908;16.848;2022-07-10T01:29:37;99797.59;;;16.44;100.00
58598;BME280;60319;46.908;16.848;2022-07-10T01:34:38;99801.13;;;16.45;100.00
58598;BME280;60319;46.908;16.848;2022-07-10T01:39:38;99790.63;;;16.35;100.00
58598;BME280;60319;46.908;16.848;2022-07-10T01:44:39;99787.00;;;16.19;100.00
58598;BME280;60319;46.908;16.848;2022-07-10T01:49:39;99789.03;;;16.09;100.00
58598;BME280;60319;46.908;16.848;2022-07-10T01:54:40;99774.34;;;15.88;100.00
58598;BME280;60319;46.908;16.848;2022-07-10T01:59:40;99773.56;;;15.71;100.00
58598;BME280;60319;46.908;16.848;2022-07-10T02:04:41;99774.06;;;15.58;100.00
58598;BME280;60319;46.908;16.848;2022-07-10T02:09:42;99768.22;;;15.46;100.00
58598;BME280;60319;46.908;16.848;2022-07-10T02:14:43;99775.94;;;15.40;100.00
58598;BME280;60319;46.908;16.848;2022-07-10T02:19:43;99767.75;;;15.34;100.00
58598;BME280;60319;46.908;16.848;2022-07-10T02:24:44;99770.44;;;15.25;100.00
58598;BME280;60319;46.908;16.848;2022-07-10T02:29:44;99773.47;;;15.14;100.00
58598;BME280;60319;46.908;16.848;2022-07-10T02:34:45;99764.09;;;15.18;100.00
58598;BME280;60319;46.908;16.848;2022-07-10T02:39:45;99751.69;;;15.17;100.00
58598;BME280;60319;46.908;16.848;2022-07-10T02:44:46;99753.72;;;15.07;100.00
58598;BME280;60319;46.908;16.848;2022-07-10T02:49:46;99745.00;;;14.88;100.00
58598;BME280;60319;46.908;16.848;2022-07-10T02:54:47;99734.78;;;14.83;100.00
58598;BME280;60319;46.908;16.848;2022-07-10T02:59:48;99742.66;;;14.85;100.00
58598;BME280;60319;46.908;16.848;2022-07-10T03:04:48;99745.28;;;14.68;100.00
58598;BME280;60319;46.908;16.848;2022-07-10T03:09:49;99734.22;;;14.63;100.00
58598;BME280;60319;46.908;16.848;2022-07-10T03:14:49;99722.88;;;14.53;100.00
58598;BME280;60319;46.908;16.848;2022-07-10T03:19:49;99743.25;;;14.45;100.00
58598;BME280;60319;46.908;16.848;2022-07-10T03:24:50;99759.97;;;14.47;100.00
58598;BME280;60319;46.908;16.848;2022-07-10T03:29:50;99744.78;;;14.64;100.00
58598;BME280;60319;46.908;16.848;2022-07-10T03:34:51;99744.44;;;14.76;100.00
58598;BME280;60319;46.908;16.848;2022-07-10T03:39:52;99743.66;;;14.92;100.00
58598;BME280;60319;46.908;16.848;2022-07-10T03:44:53;99746.69;;;15.14;100.00
58598;BME280;60319;46.908;16.848;2022-07-10T03:49:53;99743.66;;;15.34;100.00
58598;BME280;60319;46.908;16.848;2022-07-10T03:54:54;99746.09;;;15.60;100.00
58598;BME280;60319;46.908;16.848;2022-07-10T03:59:55;99739.59;;;16.66;100.00
58598;BME280;60319;46.908;16.848;2022-07-10T04:04:55;99734.72;;;17.47;100.00
58598;BME280;60319;46.908;16.848;2022-07-10T04:09:56;99735.19;;;17.36;100.00
58598;BME280;60319;46.908;16.848;2022-07-10T04:14:56;99743.72;;;17.54;100.00
58598;BME280;60319;46.908;16.848;2022-07-10T04:19:57;99742.81;;;17.77;100.00
58598;BME280;60319;46.908;16.848;2022-07-10T04:24:58;99735.13;;;18.41;100.00
58598;BME280;60319;46.908;16.848;2022-07-10T04:29:58;99729.03;;;18.98;97.93
58598;BME280;60319;46.908;16.848;2022-07-10T04:34:59;99743.78;;;19.02;99.39
58598;BME280;60319;46.908;16.848;2022-07-10T04:40:01;99737.50;;;19.45;95.89
58598;BME280;60319;46.908;16.848;2022-07-10T04:45:01;99732.53;;;21.96;80.67
58598;BME280;60319;46.908;16.848;2022-07-10T04:50:02;99737.53;;;22.77;76.56
58598;BME280;60319;46.908;16.848;2022-07-10T04:55:03;99725.59;;;24.60;62.63
58598;BME280;60319;46.908;16.848;2022-07-10T05:00:04;99733.38;;;23.69;64.56
58598;BME280;60319;46.908;16.848;2022-07-10T05:05:05;99730.66;;;21.96;71.44
58598;BME280;60319;46.908;16.848;2022-07-10T05:10:06;99726.31;;;24.79;61.09
58598;BME280;60319;46.908;16.848;2022-07-10T05:15:09;99725.41;;;22.47;64.27
58598;BME280;60319;46.908;16.848;2022-07-10T05:20:10;99718.03;;;20.48;70.76
58598;BME280;60319;46.908;16.848;2022-07-10T05:25:11;99722.56;;;19.78;79.78
58598;BME280;60319;46.908;16.848;2022-07-10T05:30:11;99711.31;;;19.39;83.13
58598;BME280;60319;46.908;16.848;2022-07-10T05:35:13;99710.19;;;19.55;84.51
58598;BME280;60319;46.908;16.848;2022-07-10T05:40:14;99708.34;;;21.28;75.21
58598;BME280;60319;46.908;16.848;2022-07-10T05:45:15;99698.16;;;26.51;55.47
58598;BME280;60319;46.908;16.848;2022-07-10T05:50:15;99688.25;;;27.14;49.68
58598;BME280;60319;46.908;16.848;2022-07-10T05:55:16;99691.13;;;25.68;53.55
58598;BME280;60319;46.908;16.848;2022-07-10T06:00:16;99700.16;;;24.54;54.54
58598;BME280;60319;46.908;16.848;2022-07-10T06:05:17;99705.66;;;22.01;65.65
58598;BME280;60319;46.908;16.848;2022-07-10T06:10:20;99695.13;;;25.77;54.34
58598;BME280;60319;46.908;16.848;2022-07-10T06:15:21;99701.47;;;28.29;47.45
58598;BME280;60319;46.908;16.848;2022-07-10T06:20:21;99706.50;;;28.42;44.42
58598;BME280;60319;46.908;16.848;2022-07-10T06:25:22;99697.13;;;29.42;42.14
58598;BME280;60319;46.908;16.848;2022-07-10T06:30:22;99695.03;;;30.34;40.68
58598;BME280;60319;46.908;16.848;2022-07-10T06:35:23;99699.97;;;28.21;45.06
58598;BME280;60319;46.908;16.848;2022-07-10T06:40:30;99703.03;;;28.52;44.20
58598;BME280;60319;46.908;16.848;2022-07-10T06:45:35;99705.81;;;28.90;42.69
58598;BME280;60319;46.908;16.848;2022-07-10T06:50:35;99698.56;;;27.91;44.67
58598;BME280;60319;46.908;16.848;2022-07-10T06:55:37;99708.06;;;29.37;41.85
58598;BME280;60319;46.908;16.848;2022-07-10T07:00:38;99711.13;;;28.14;43.78
58598;BME280;60319;46.908;16.848;2022-07-10T07:05:38;99714.91;;;27.07;47.42
58598;BME280;60319;46.908;16.848;2022-07-10T07:10:39;99711.84;;;26.39;49.86
58598;BME280;60319;46.908;16.848;2022-07-10T07:15:39;99707.94;;;27.16;50.00
58598;BME280;60319;46.908;16.848;2022-07-10T07:20:42;99690.78;;;28.27;43.62
58598;BME280;60319;46.908;16.848;2022-07-10T07:26:02;99692.94;;;27.36;45.94
58598;BME280;60319;46.908;16.848;2022-07-10T07:31:06;99698.28;;;25.86;50.86
58598;BME280;60319;46.908;16.848;2022-07-10T07:36:06;99693.72;;;25.51;52.74
58598;BME280;60319;46.908;16.848;2022-07-10T07:41:07;99688.47;;;24.54;54.14
58598;BME280;60319;46.908;16.848;2022-07-10T07:46:09;99692.75;;;24.19;57.33
58598;BME280;60319;46.908;16.848;2022-07-10T07:51:10;99697.97;;;23.45;57.27
58598;BME280;60319;46.908;16.848;2022-07-10T07:56:10;99692.19;;;24.10;58.11
58598;BME280;60319;46.908;16.848;2022-07-10T08:01:11;99691.56;;;24.08;54.73
58598;BME280;60319;46.908;16.848;2022-07-10T08:06:11;99685.63;;;24.48;55.06
58598;BME280;60319;46.908;16.848;2022-07-10T08:11:15;99682.91;;;24.18;54.16
58598;BME280;60319;46.908;16.848;2022-07-10T08:16:15;99674.84;;;23.62;56.44
58598;BME280;60319;46.908;16.848;2022-07-10T08:21:16;99693.81;;;23.80;58.63
58598;BME280;60319;46.908;16.848;2022-07-10T08:26:16;99689.06;;;23.76;57.91
58598;BME280;60319;46.908;16.848;2022-07-10T08:31:17;99695.78;;;23.73;59.78
58598;BME280;60319;46.908;16.848;2022-07-10T08:36:18;99686.13;;;23.40;59.20
58598;BME280;60319;46.908;16.848;2022-07-10T08:41:22;99689.50;;;23.91;61.06
58598;BME280;60319;46.908;16.848;2022-07-10T08:46:24;99684.94;;;23.73;58.94
58598;BME280;60319;46.908;16.848;2022-07-10T08:57:00;99678.00;;;23.77;55.10
58598;BME280;60319;46.908;16.848;2022-07-10T09:02:01;99664.47;;;23.70;59.32
58598;BME280;60319;46.908;16.848;2022-07-10T09:07:02;99667.38;;;24.06;58.64
58598;BME280;60319;46.908;16.848;2022-07-10T09:12:04;99671.75;;;24.38;58.40
58598;BME280;60319;46.908;16.848;2022-07-10T09:17:05;99681.94;;;24.55;55.06
58598;BME280;60319;46.908;16.848;2022-07-10T09:22:07;99680.41;;;23.67;59.23
58598;BME280;60319;46.908;16.848;2022-07-10T09:27:10;99684.41;;;23.20;60.17
58598;BME280;60319;46.908;16.848;2022-07-10T09:32:11;99683.53;;;23.01;62.34
58598;BME280;60319;46.908;16.848;2022-07-10T09:37:28;99672.41;;;22.90;60.85
58598;BME280;60319;46.908;16.848;2022-07-10T09:42:33;99684.78;;;23.24;62.03
58598;BME280;60319;46.908;16.848;2022-07-10T09:47:34;99686.69;;;23.23;62.46
58598;BME280;60319;46.908;16.848;2022-07-10T09:52:36;99690.03;;;23.44;65.24
58598;BME280;60319;46.908;16.848;2022-07-10T09:57:37;99698.06;;;22.88;60.83
58598;BME280;60319;46.908;16.848;2022-07-10T10:02:38;99694.78;;;22.79;61.00
58598;BME280;60319;46.908;16.848;2022-07-10T10:07:39;99683.94;;;22.79;61.29
58598;BME280;60319;46.908;16.848;2022-07-10T10:12:48;99690.69;;;22.69;61.16
58598;BME280;60319;46.908;16.848;2022-07-10T10:17:51;99694.50;;;22.23;61.25
58598;BME280;60319;46.908;16.848;2022-07-10T10:22:55;99695.41;;;22.49;65.05
58598;BME280;60319;46.908;16.848;2022-07-10T10:27:56;99681.53;;;22.96;64.37
58598;BME280;60319;46.908;16.848;2022-07-10T10:32:57;99686.53;;;22.67;61.16
58598;BME280;60319;46.908;16.848;2022-07-10T10:37:58;99682.13;;;22.73;63.04
58598;BME280;60319;46.908;16.848;2022-07-10T10:43:18;99687.28;;;21.50;68.24
58598;BME280;60319;46.908;16.848;2022-07-10T10:48:19;99695.84;;;20.66;66.22
58598;BME280;60319;46.908;16.848;2022-07-10T10:53:24;99695.47;;;20.89;71.02
58598;BME280;60319;46.908;16.848;2022-07-10T10:58:28;99699.34;;;21.48;69.42
58598;BME280;60319;46.908;16.848;2022-07-10T11:03:36;99679.41;;;21.28;68.23
58598;BME280;60319;46.908;16.848;2022-07-10T11:08:37;99685.06;;;20.93;70.76
58598;BME280;60319;46.908;16.848;2022-07-10T11:13:39;99681.69;;;21.45;71.43
58598;BME280;60319;46.908;16.848;2022-07-10T11:18:40;99677.75;;;22.00;66.02
58598;BME280;60319;46.908;16.848;2022-07-10T11:24:10;99672.84;;;22.55;67.57
58598;BME280;60319;46.908;16.848;2022-07-10T11:29:18;99666.75;;;22.66;65.56
58598;BME280;60319;46.908;16.848;2022-07-10T11:34:19;99673.31;;;23.03;62.98
58598;BME280;60319;46.908;16.848;2022-07-10T11:39:19;99659.44;;;22.92;62.79
58598;BME280;60319;46.908;16.848;2022-07-10T11:44:20;99661.13;;;23.12;64.83
58598;BME280;60319;46.908;16.848;2022-07-10T11:49:21;99662.44;;;21.67;65.31
58598;BME280;60319;46.908;16.848;2022-07-10T11:54:21;99669.13;;;22.17;62.11
58598;BME280;60319;46.908;16.848;2022-07-10T11:59:26;99655.06;;;21.28;66.23
58598;BME280;60319;46.908;16.848;2022-07-10T12:04:29;99644.13;;;20.89;66.13
58598;BME280;60319;46.908;16.848;2022-07-10T12:09:30;99643.59;;;21.40;67.82
58598;BME280;60319;46.908;16.848;2022-07-10T12:14:32;99651.44;;;22.14;65.09
58598;BME280;60319;46.908;16.848;2022-07-10T12:19:37;99650.84;;;22.12;62.45
58598;BME280;60319;46.908;16.848;2022-07-10T12:24:38;99645.63;;;22.43;61.20
58598;BME280;60319;46.908;16.848;2022-07-10T12:29:38;99646.88;;;22.15;65.01
58598;BME280;60319;46.908;16.848;2022-07-10T12:34:42;99650.25;;;22.03;61.07
58598;BME280;60319;46.908;16.848;2022-07-10T12:39:51;99653.78;;;22.04;64.20
58598;BME280;60319;46.908;16.848;2022-07-10T12:44:54;99661.41;;;21.81;63.45
58598;BME280;60319;46.908;16.848;2022-07-10T12:55:09;99662.94;;;22.03;62.49
58598;BME280;60319;46.908;16.848;2022-07-10T13:00:11;99662.84;;;22.23;63.06
58598;BME280;60319;46.908;16.848;2022-07-10T13:05:25;99656.06;;;22.72;60.64
58598;BME280;60319;46.908;16.848;2022-07-10T13:10:25;99648.47;;;22.55;60.48
58598;BME280;60319;46.908;16.848;2022-07-10T13:15:28;99649.72;;;22.85;59.17
58598;BME280;60319;46.908;16.848;2022-07-10T13:20:29;99671.06;;;22.74;59.22
58598;BME280;60319;46.908;16.848;2022-07-10T13:25:33;99660.84;;;22.76;58.96
58598;BME280;60319;46.908;16.848;2022-07-10T13:30:34;99659.50;;;22.60;59.03
58598;BME280;60319;46.908;16.848;2022-07-10T13:35:35;99663.41;;;21.93;58.14
58598;BME280;60319;46.908;16.848;2022-07-10T13:40:37;99663.63;;;22.30;58.61
58598;BME280;60319;46.908;16.848;2022-07-10T13:45:38;99658.88;;;22.58;57.91
58598;BME280;60319;46.908;16.848;2022-07-10T13:50:44;99665.13;;;21.87;60.91
58598;BME280;60319;46.908;16.848;2022-07-10T13:55:47;99674.31;;;21.66;61.96
58598;BME280;60319;46.908;16.848;2022-07-10T14:00:48;99688.88;;;21.85;63.91
58598;BME280;60319;46.908;16.848;2022-07-10T14:05:49;99706.47;;;20.88;67.11
58598;BME280;60319;46.908;16.848;2022-07-10T14:10:49;99703.59;;;20.00;69.02
58598;BME280;60319;46.908;16.848;2022-07-10T14:15:50;99694.81;;;19.98;68.17
58598;BME280;60319;46.908;16.848;2022-07-10T14:20:50;99691.25;;;20.53;65.20
58598;BME280;60319;46.908;16.848;2022-07-10T14:26:09;99698.75;;;20.51;64.53
58598;BME280;60319;46.908;16.848;2022-07-10T14:31:09;99690.03;;;20.69;62.39
58598;BME280;60319;46.908;16.848;2022-07-10T14:36:11;99676.75;;;21.08;64.16
58598;BME280;60319;46.908;16.848;2022-07-10T14:41:11;99671.31;;;21.22;63.06
58598;BME280;60319;46.908;16.848;2022-07-10T14:46:11;99667.38;;;21.17;64.66
58598;BME280;60319;46.908;16.848;2022-07-10T14:51:12;99680.72;;;21.12;63.81
58598;BME280;60319;46.908;16.848;2022-07-10T14:56:13;99689.63;;;21.13;63.78
58598;BME280;60319;46.908;16.848;2022-07-10T15:01:16;99681.31;;;20.87;62.77
58598;BME280;60319;46.908;16.848;2022-07-10T15:06:16;99696.88;;;20.78;63.32
58598;BME280;60319;46.908;16.848;2022-07-10T15:11:18;99692.97;;;20.95;64.02
58598;BME280;60319;46.908;16.848;2022-07-10T15:16:26;99704.78;;;20.66;63.93
58598;BME280;60319;46.908;16.848;2022-07-10T15:21:27;99707.25;;;20.61;63.33
58598;BME280;60319;46.908;16.848;2022-07-10T15:26:28;99718.88;;;20.48;64.62
58598;BME280;60319;46.908;16.848;2022-07-10T15:31:29;99699.41;;;21.14;64.07
58598;BME280;60319;46.908;16.848;2022-07-10T15:36:29;99683.81;;;20.96;65.03
58598;BME280;60319;46.908;16.848;2022-07-10T15:41:30;99686.72;;;20.94;59.64
58598;BME280;60319;46.908;16.848;2022-07-10T15:46:31;99680.28;;;21.22;61.29
58598;BME280;60319;46.908;16.848;2022-07-10T15:51:31;99687.34;;;20.62;60.04
58598;BME280;60319;46.908;16.848;2022-07-10T15:56:32;99683.16;;;20.39;60.62
58598;BME280;60319;46.908;16.848;2022-07-10T16:01:32;99693.97;;;20.66;61.12
58598;BME280;60319;46.908;16.848;2022-07-10T16:06:33;99699.16;;;20.55;55.06
58598;BME280;60319;46.908;16.848;2022-07-10T16:11:33;99685.88;;;21.07;56.72
58598;BME280;60319;46.908;16.848;2022-07-10T16:16:35;99686.13;;;21.12;57.34
58598;BME280;60319;46.908;16.848;2022-07-10T16:21:36;99691.69;;;20.57;55.33
58598;BME280;60319;46.908;16.848;2022-07-10T16:26:37;99705.78;;;20.38;55.83
58598;BME280;60319;46.908;16.848;2022-07-10T16:31:38;99699.84;;;20.01;55.32
58598;BME280;60319;46.908;16.848;2022-07-10T16:36:41;99708.31;;;19.98;54.82
58598;BME280;60319;46.908;16.848;2022-07-10T16:41:41;99704.41;;;20.00;55.88
58598;BME280;60319;46.908;16.848;2022-07-10T16:46:42;99706.97;;;19.80;56.76
58598;BME280;60319;46.908;16.848;2022-07-10T16:51:43;99710.91;;;19.77;56.68
58598;BME280;60319;46.908;16.848;2022-07-10T16:56:43;99717.84;;;19.52;53.71
58598;BME280;60319;46.908;16.848;2022-07-10T17:01:44;99720.06;;;19.76;54.10
58598;BME280;60319;46.908;16.848;2022-07-10T17:06:45;99709.41;;;19.61;53.27
58598;BME280;60319;46.908;16.848;2022-07-10T17:11:45;99716.16;;;19.50;54.83
58598;BME280;60319;46.908;16.848;2022-07-10T17:16:46;99721.41;;;19.30;54.16
58598;BME280;60319;46.908;16.848;2022-07-10T17:21:46;99734.75;;;18.88;52.91
58598;BME280;60319;46.908;16.848;2022-07-10T17:26:52;99748.31;;;18.73;52.69
58598;BME280;60319;46.908;16.848;2022-07-10T17:31:53;99762.38;;;18.75;53.10
58598;BME280;60319;46.908;16.848;2022-07-10T17:36:54;99771.03;;;19.07;54.98
58598;BME280;60319;46.908;16.848;2022-07-10T17:41:55;99766.22;;;18.87;53.46
58598;BME280;60319;46.908;16.848;2022-07-10T17:46:57;99773.38;;;18.95;52.32
58598;BME280;60319;46.908;16.848;2022-07-10T17:51:58;99779.69;;;18.87;54.91
58598;BME280;60319;46.908;16.848;2022-07-10T17:56:59;99782.72;;;18.78;55.28
58598;BME280;60319;46.908;16.848;2022-07-10T18:01:59;99778.03;;;18.28;55.38
58598;BME280;60319;46.908;16.848;2022-07-10T18:07:00;99791.50;;;18.13;55.30
58598;BME280;60319;46.908;16.848;2022-07-10T18:12:01;99799.09;;;17.79;55.57
58598;BME280;60319;46.908;16.848;2022-07-10T18:17:01;99799.91;;;17.79;55.40
58598;BME280;60319;46.908;16.848;2022-07-10T18:22:02;99806.69;;;17.45;56.75
58598;BME280;60319;46.908;16.848;2022-07-10T18:27:03;99799.69;;;17.36;56.69
58598;BME280;60319;46.908;16.848;2022-07-10T18:32:04;99797.97;;;17.19;58.17
58598;BME280;60319;46.908;16.848;2022-07-10T18:37:05;99808.81;;;17.03;59.55
58598;BME280;60319;46.908;16.848;2022-07-10T18:42:06;99814.53;;;16.76;61.08
58598;BME280;60319;46.908;16.848;2022-07-10T18:47:07;99822.19;;;16.56;64.80
58598;BME280;60319;46.908;16.848;2022-07-10T18:52:07;99819.44;;;16.33;67.38
58598;BME280;60319;46.908;16.848;2022-07-10T18:57:13;99829.44;;;16.07;69.21
58598;BME280;60319;46.908;16.848;2022-07-10T19:02:14;99833.84;;;15.83;70.95
58598;BME280;60319;46.908;16.848;2022-07-10T19:07:14;99839.75;;;15.62;73.88
58598;BME280;60319;46.908;16.848;2022-07-10T19:12:15;99853.31;;;15.35;76.74
58598;BME280;60319;46.908;16.848;2022-07-10T19:17:16;99872.56;;;15.22;76.30
58598;BME280;60319;46.908;16.848;2022-07-10T19:22:16;99873.53;;;15.13;78.30
58598;BME280;60319;46.908;16.848;2022-07-10T19:27:18;99878.22;;;14.94;79.76
58598;BME280;60319;46.908;16.848;2022-07-10T19:32:19;99885.53;;;14.84;81.23
58598;BME280;60319;46.908;16.848;2022-07-10T19:37:19;99889.13;;;14.66;83.02
58598;BME280;60319;46.908;16.848;2022-07-10T19:42:20;99896.75;;;14.44;84.54
58598;BME280;60319;46.908;16.848;2022-07-10T19:47:21;99902.38;;;14.33;87.60
58598;BME280;60319;46.908;16.848;2022-07-10T19:52:22;99910.03;;;14.01;91.54
58598;BME280;60319;46.908;16.848;2022-07-10T19:57:22;99891.47;;;13.55;93.67
58598;BME280;60319;46.908;16.848;2022-07-10T20:02:23;99885.44;;;13.97;94.66
58598;BME280;60319;46.908;16.848;2022-07-10T20:07:24;99896.25;;;13.87;93.74
58598;BME280;60319;46.908;16.848;2022-07-10T20:12:25;99893.91;;;13.84;86.42
58598;BME280;60319;46.908;16.848;2022-07-10T20:17:25;99902.78;;;13.93;91.58
58598;BME280;60319;46.908;16.848;2022-07-10T20:22:26;99909.34;;;13.99;87.00
58598;BME280;60319;46.908;16.848;2022-07-10T20:27:26;99903.75;;;14.10;87.38
58598;BME280;60319;46.908;16.848;2022-07-10T20:32:27;99911.09;;;14.08;86.37
58598;BME280;60319;46.908;16.848;2022-07-10T20:37:27;99917.59;;;14.06;82.02
58598;BME280;60319;46.908;16.848;2022-07-10T20:42:43;99924.00;;;14.13;82.30
58598;BME280;60319;46.908;16.848;2022-07-10T20:47:44;99925.47;;;14.07;78.32
58598;BME280;60319;46.908;16.848;2022-07-10T20:52:45;99922.03;;;14.23;81.24
58598;BME280;60319;46.908;16.848;2022-07-10T20:57:46;99939.88;;;14.15;75.45
58598;BME280;60319;46.908;16.848;2022-07-10T21:02:47;99928.03;;;14.17;77.30
58598;BME280;60319;46.908;16.848;2022-07-10T21:07:47;99934.63;;;14.31;74.70
58598;BME280;60319;46.908;16.848;2022-07-10T21:12:48;99939.69;;;14.34;73.65
58598;BME280;60319;46.908;16.848;2022-07-10T21:17:48;99942.34;;;14.34;74.47
58598;BME280;60319;46.908;16.848;2022-07-10T21:22:49;99936.41;;;14.22;74.20
58598;BME280;60319;46.908;16.848;2022-07-10T21:27:50;99950.94;;;14.20;73.77
58598;BME280;60319;46.908;16.848;2022-07-10T21:32:50;99941.59;;;14.24;73.68
58598;BME280;60319;46.908;16.848;2022-07-10T21:37:57;99952.59;;;14.47;72.37
58598;BME280;60319;46.908;16.848;2022-07-10T21:42:59;99957.09;;;14.38;73.71
58598;BME280;60319;46.908;16.848;2022-07-10T21:47:59;99953.50;;;14.30;73.26
58598;BME280;60319;46.908;16.848;2022-07-10T21:53:00;99947.47;;;14.28;73.45
58598;BME280;60319;46.908;16.848;2022-07-10T21:58:02;99949.47;;;14.25;74.14
58598;BME280;60319;46.908;16.848;2022-07-10T22:03:02;99959.06;;;14.10;75.05
58598;BME280;60319;46.908;16.848;2022-07-10T22:08:05;99957.00;;;14.04;75.70
58598;BME280;60319;46.908;16.848;2022-07-10T22:13:08;99957.88;;;14.04;76.25
58598;BME280;60319;46.908;16.848;2022-07-10T22:18:09;99959.78;;;14.20;78.03
58598;BME280;60319;46.908;16.848;2022-07-10T22:23:09;99974.16;;;13.93;84.13
58598;BME280;60319;46.908;16.848;2022-07-10T22:28:10;99970.81;;;13.72;84.01
58598;BME280;60319;46.908;16.848;2022-07-10T22:33:11;99962.50;;;13.57;86.65
58598;BME280;60319;46.908;16.848;2022-07-10T22:38:11;99972.66;;;13.26;86.66
58598;BME280;60319;46.908;16.848;2022-07-10T22:43:14;99966.53;;;13.15;88.47
58598;BME280;60319;46.908;16.848;2022-07-10T22:48:15;99964.16;;;13.12;84.42
58598;BME280;60319;46.908;16.848;2022-07-10T22:53:16;99969.13;;;13.25;83.66
58598;BME280;60319;46.908;16.848;2022-07-10T22:58:17;99971.28;;;13.21;86.37
58598;BME280;60319;46.908;16.848;2022-07-10T23:03:17;99960.19;;;13.16;82.97
58598;BME280;60319;46.908;16.848;2022-07-10T23:08:18;99979.97;;;13.23;82.99
58598;BME280;60319;46.908;16.848;2022-07-10T23:13:18;99965.81;;;13.23;81.40
58598;BME280;60319;46.908;16.848;2022-07-10T23:18:19;99966.66;;;13.42;81.27
58598;BME280;60319;46.908;16.848;2022-07-10T23:23:19;99968.84;;;13.46;82.34
58598;BME280;60319;46.908;16.848;2022-07-10T23:28:19;99972.47;;;13.55;85.91
58598;BME280;60319;46.908;16.848;2022-07-10T23:33:20;99970.25;;;13.51;80.81
58598;BME280;60319;46.908;16.848;2022-07-10T23:38:21;99975.91;;;13.47;84.65
58598;BME280;60319;46.908;16.848;2022-07-10T23:43:21;99976.47;;;13.51;85.04
58598;BME280;60319;46.908;16.848;2022-07-10T23:48:22;99965.47;;;13.54;84.63
58598;BME280;60319;46.908;16.848;2022-07-10T23:53:41;99977.72;;;13.29;85.00
58598;BME280;60319;46.908;16.848;2022-07-10T23:58:41;99976.78;;;13.38;83.46
